createdAt,value
2023-09-17T00:01:13.931Z,100001.19
2023-09-17T00:03:53.515Z,100028.19
2023-09-17T00:06:22.372Z,100021.38
2023-09-17T00:08:51.016Z,100030.88
2023-09-17T00:11:18.405Z,100025.22
2023-09-17T00:13:46.197Z,100023.53
2023-09-17T00:16:14.712Z,100020.72
2023-09-17T00:18:42.915Z,100026.78
2023-09-17T00:21:10.567Z,100028.88
2023-09-17T00:23:38.485Z,100019.72
2023-09-17T00:26:05.883Z,100019.75
2023-09-17T00:28:33.924Z,100019.75
2023-09-17T00:31:01.341Z,100007.88
2023-09-17T00:33:29.016Z,100000.47
2023-09-17T00:35:56.500Z,100019.28
2023-09-17T00:38:24.187Z,100009.38
2023-09-17T00:40:52.374Z,99995.84
2023-09-17T00:43:20.458Z,100008.03
2023-09-17T00:45:49.945Z,99999.94
2023-09-17T00:48:20.000Z,99989.00
2023-09-17T00:50:47.912Z,100008.25
2023-09-17T00:53:15.602Z,99992.50
2023-09-17T00:55:42.975Z,100004.44
2023-09-17T00:58:10.883Z,100004.25
2023-09-17T01:00:40.038Z,99994.19
2023-09-17T01:03:09.500Z,99981.41
2023-09-17T01:05:42.277Z,99997.06
2023-09-17T01:08:11.297Z,100006.94
2023-09-17T01:10:42.663Z,100005.16
2023-09-17T01:13:11.301Z,100004.00
2023-09-17T01:15:39.622Z,99989.25
2023-09-17T01:18:10.993Z,100000.09
2023-09-17T01:21:06.305Z,100005.53
2023-09-17T01:23:52.341Z,100002.69
2023-09-17T01:26:27.984Z,100002.03
2023-09-17T01:28:55.827Z,100002.03
2023-09-17T01:31:25.543Z,99996.31
2023-09-17T01:33:54.722Z,99998.50
2023-09-17T01:36:28.574Z,99994.91
2023-09-17T01:39:19.454Z,99982.16
2023-09-17T01:41:47.612Z,99993.66
2023-09-17T01:44:16.054Z,99997.19
2023-09-17T01:46:44.502Z,99987.66
2023-09-17T01:49:13.731Z,99982.84
2023-09-17T01:51:41.598Z,99995.34
2023-09-17T01:54:11.848Z,99979.09
2023-09-17T01:56:39.270Z,99987.31
2023-09-17T01:59:07.939Z,99980.63
2023-09-17T02:01:35.499Z,99994.09
2023-09-17T02:04:03.489Z,99986.41
2023-09-17T02:06:30.973Z,99982.63
2023-09-17T02:08:59.367Z,99989.44
2023-09-17T02:11:26.955Z,99976.97
2023-09-17T02:13:54.859Z,99991.56
2023-09-17T02:16:23.219Z,99993.09
2023-09-17T02:18:52.570Z,99980.31
2023-09-17T02:21:20.065Z,99988.06
2023-09-17T02:23:49.332Z,99985.63
2023-09-17T02:26:16.950Z,99979.97
2023-09-17T02:28:48.364Z,99977.31
2023-09-17T02:31:15.899Z,99969.19
2023-09-17T02:33:47.801Z,99973.59
2023-09-17T02:36:15.177Z,99960.72
2023-09-17T02:38:43.319Z,99976.97
2023-09-17T02:41:10.880Z,99973.44
2023-09-17T02:43:39.057Z,99975.72
2023-09-17T02:46:06.501Z,99949.69
2023-09-17T02:48:36.057Z,99972.03
2023-09-17T02:51:03.935Z,99960.19
2023-09-17T02:53:32.651Z,99973.34
2023-09-17T02:56:00.875Z,99974.22
2023-09-17T02:58:29.096Z,99951.91
2023-09-17T03:00:57.438Z,99961.69
2023-09-17T03:03:26.156Z,99958.03
2023-09-17T03:05:55.206Z,99961.94
2023-09-17T03:08:24.523Z,99948.00
2023-09-17T03:10:59.719Z,99942.78
2023-09-17T03:13:28.466Z,99964.69
2023-09-17T03:16:00.568Z,99955.00
2023-09-17T03:18:28.763Z,99970.09
2023-09-17T03:20:56.172Z,99966.56
2023-09-17T03:23:23.910Z,99971.81
2023-09-17T03:25:51.501Z,99950.66
2023-09-17T03:28:19.320Z,99969.00
2023-09-17T03:30:47.619Z,99964.13
2023-09-17T03:33:16.331Z,99977.28
2023-09-17T03:35:49.986Z,99968.72
2023-09-17T03:38:17.980Z,99956.47
2023-09-17T03:40:46.241Z,99973.22
2023-09-17T03:43:14.636Z,99979.09
2023-09-17T03:45:42.699Z,99973.97
2023-09-17T03:48:11.406Z,99976.00
2023-09-17T03:50:40.716Z,99968.72
2023-09-17T03:53:09.165Z,99953.91
2023-09-17T03:55:37.045Z,99968.22
2023-09-17T03:58:05.788Z,99978.31
2023-09-17T04:00:39.161Z,99967.34
2023-09-17T04:03:09.737Z,99976.69
2023-09-17T04:05:37.641Z,99974.31
2023-09-17T04:08:05.682Z,99978.91
2023-09-17T04:10:34.484Z,99966.88
2023-09-17T04:13:02.357Z,99971.22
2023-09-17T04:15:29.765Z,99966.81
2023-09-17T04:17:59.006Z,99970.84
2023-09-17T04:20:28.432Z,99961.03
2023-09-17T04:23:15.337Z,99981.66
2023-09-17T04:25:42.886Z,99982.84
2023-09-17T04:28:11.248Z,99974.28
2023-09-17T04:30:39.064Z,99975.00
2023-09-17T04:33:06.969Z,99980.78
2023-09-17T04:35:35.704Z,99977.72
2023-09-17T04:38:05.445Z,99995.38
2023-09-17T04:40:33.834Z,99989.38
2023-09-17T04:43:06.557Z,99978.34
2023-09-17T04:45:37.750Z,99990.13
2023-09-17T04:48:14.882Z,99988.47
2023-09-17T04:50:45.636Z,99988.47
2023-09-17T04:53:16.176Z,99991.56
2023-09-17T04:55:48.116Z,99980.84
2023-09-17T04:58:17.446Z,99977.66
2023-09-17T05:00:48.796Z,99995.63
2023-09-17T05:03:17.275Z,99994.03
2023-09-17T05:05:45.497Z,99992.31
2023-09-17T05:08:18.296Z,99991.91
2023-09-17T05:10:46.590Z,99991.16
2023-09-17T05:13:15.812Z,100001.16
2023-09-17T05:15:44.219Z,99991.44
2023-09-17T05:18:12.733Z,99993.16
2023-09-17T05:20:48.620Z,99992.25
2023-09-17T05:23:17.496Z,99981.53
2023-09-17T05:25:46.120Z,100015.75
2023-09-17T05:28:16.241Z,100013.28
2023-09-17T05:30:46.042Z,100013.97
2023-09-17T05:33:13.874Z,100016.91
2023-09-17T05:35:43.449Z,100015.56
2023-09-17T05:38:11.174Z,100014.22
2023-09-17T05:40:39.058Z,100013.06
2023-09-17T05:43:07.495Z,100030.19
2023-09-17T05:45:35.149Z,100018.78
2023-09-17T05:48:03.398Z,100035.91
2023-09-17T05:50:31.042Z,100016.38
2023-09-17T05:52:58.847Z,100037.59
2023-09-17T05:55:26.847Z,100048.13
2023-09-17T05:57:56.628Z,100042.63
2023-09-17T06:00:24.688Z,100044.25
2023-09-17T06:02:52.840Z,100045.06
2023-09-17T06:05:23.190Z,100039.78
2023-09-17T06:07:56.145Z,100032.38
2023-09-17T06:10:24.063Z,100041.00
2023-09-17T06:12:51.687Z,100048.06
2023-09-17T06:15:19.850Z,100038.22
2023-09-17T06:17:47.989Z,100043.41
2023-09-17T06:20:19.497Z,100056.91
2023-09-17T06:22:50.003Z,100054.66
2023-09-17T06:25:18.222Z,100056.94
2023-09-17T06:27:46.912Z,100056.38
2023-09-17T06:30:17.174Z,100065.75
2023-09-17T06:32:44.703Z,100072.88
2023-09-17T06:35:12.423Z,100066.78
2023-09-17T06:37:41.118Z,100062.94
2023-09-17T06:40:12.217Z,100072.84
2023-09-17T06:42:40.732Z,100068.50
2023-09-17T06:45:12.537Z,100061.59
2023-09-17T06:47:40.091Z,100055.53
2023-09-17T06:50:09.028Z,100066.81
2023-09-17T06:52:36.421Z,100071.78
2023-09-17T06:55:06.073Z,100074.97
2023-09-17T06:57:33.557Z,100075.63
2023-09-17T07:00:01.224Z,100069.44
2023-09-17T07:02:33.703Z,100093.69
2023-09-17T07:05:05.549Z,100092.13
2023-09-17T07:07:33.010Z,100079.44
2023-09-17T07:10:02.885Z,100081.88
2023-09-17T07:12:30.184Z,100092.22
2023-09-17T07:14:57.979Z,100080.34
2023-09-17T07:17:25.891Z,100089.31
2023-09-17T07:19:54.672Z,100093.41
2023-09-17T07:22:22.562Z,100085.09
2023-09-17T07:24:57.244Z,100108.94
2023-09-17T07:27:25.033Z,100110.34
2023-09-17T07:29:54.335Z,100099.19
2023-09-17T07:32:21.816Z,100109.22
2023-09-17T07:34:49.581Z,100097.53
2023-09-17T07:37:22.971Z,100089.41
2023-09-17T07:39:57.681Z,100106.25
2023-09-17T07:42:25.439Z,100117.69
2023-09-17T07:44:54.412Z,100125.81
2023-09-17T07:47:25.740Z,100123.44
2023-09-17T07:49:53.593Z,100112.94
2023-09-17T07:52:21.049Z,100125.50
2023-09-17T07:54:48.692Z,100119.63
2023-09-17T07:57:16.133Z,100115.16
2023-09-17T07:59:44.112Z,100126.69
2023-09-17T08:02:11.645Z,100120.66
2023-09-17T08:04:39.596Z,100110.94
2023-09-17T08:07:07.200Z,100128.94
2023-09-17T08:09:34.968Z,100124.81
2023-09-17T08:12:03.982Z,100122.44
2023-09-17T08:14:32.632Z,100128.16
2023-09-17T08:17:00.380Z,100136.03
2023-09-17T08:19:28.426Z,100135.38
2023-09-17T08:21:55.791Z,100121.53
2023-09-17T08:24:25.929Z,100125.97
2023-09-17T08:26:53.889Z,100131.84
2023-09-17T08:29:22.927Z,100126.91
2023-09-17T08:31:50.419Z,100116.13
2023-09-17T08:34:19.665Z,100128.78
2023-09-17T08:36:48.224Z,100127.34
2023-09-17T08:39:16.714Z,100129.88
2023-09-17T08:41:45.015Z,100130.72
2023-09-17T08:44:15.079Z,100126.41
2023-09-17T08:46:44.415Z,100139.88
2023-09-17T08:49:12.496Z,100134.56
2023-09-17T08:51:42.917Z,100136.78
2023-09-17T08:54:31.185Z,100131.91
2023-09-17T08:57:02.751Z,100123.50
2023-09-17T08:59:31.566Z,100136.97
2023-09-17T09:02:03.657Z,100139.22
2023-09-17T09:04:36.146Z,100134.69
2023-09-17T09:07:07.063Z,100139.66
2023-09-17T09:09:37.712Z,100125.72
2023-09-17T09:12:05.934Z,100115.88
2023-09-17T09:14:33.843Z,100128.69
2023-09-17T09:17:03.071Z,100130.13
2023-09-17T09:19:31.550Z,100131.94
2023-09-17T09:21:58.927Z,100124.09
2023-09-17T09:24:42.074Z,100134.53
2023-09-17T09:27:11.120Z,100141.44
2023-09-17T09:29:38.838Z,100124.34
2023-09-17T09:32:07.964Z,100127.63
2023-09-17T09:34:36.823Z,100122.47
2023-09-17T09:37:09.745Z,100133.75
2023-09-17T09:39:37.982Z,100135.41
2023-09-17T09:42:06.321Z,100129.28
2023-09-17T09:44:36.238Z,100133.16
2023-09-17T09:47:05.755Z,100135.69
2023-09-17T09:49:47.336Z,100138.13
2023-09-17T09:52:16.142Z,100133.50
2023-09-17T09:54:47.719Z,100129.56
2023-09-17T09:57:17.608Z,100143.53
2023-09-17T09:59:48.254Z,100129.84
2023-09-17T10:02:17.211Z,100147.84
2023-09-17T10:04:48.294Z,100139.31
2023-09-17T10:07:16.787Z,100139.88
2023-09-17T10:09:45.059Z,100146.28
2023-09-17T10:12:14.008Z,100141.25
2023-09-17T10:14:42.464Z,100133.75
2023-09-17T10:17:12.369Z,100140.38
2023-09-17T10:19:43.142Z,100138.00
2023-09-17T10:22:12.088Z,100137.06
2023-09-17T10:24:40.490Z,100142.28
2023-09-17T10:27:09.443Z,100132.41
2023-09-17T10:29:39.640Z,100128.00
2023-09-17T10:32:08.272Z,100129.91
2023-09-17T10:34:38.930Z,100130.22
2023-09-17T10:37:09.958Z,100127.34
2023-09-17T10:39:38.969Z,100137.28
2023-09-17T10:42:09.647Z,100133.09
2023-09-17T10:44:41.280Z,100129.63
2023-09-17T10:47:12.820Z,100127.59
2023-09-17T10:49:42.022Z,100124.88
2023-09-17T10:52:11.072Z,100129.56
2023-09-17T10:54:39.532Z,100116.00
2023-09-17T10:57:20.461Z,100105.72
2023-09-17T10:59:50.194Z,100113.81
2023-09-17T11:02:19.941Z,100106.91
2023-09-17T11:04:49.106Z,100117.19
2023-09-17T11:07:17.881Z,100119.31
2023-09-17T11:09:47.438Z,100103.50
2023-09-17T11:12:14.953Z,100109.13
2023-09-17T11:14:47.360Z,100115.00
2023-09-17T11:17:30.907Z,100109.06
2023-09-17T11:19:59.792Z,100116.75
2023-09-17T11:22:31.461Z,100089.44
2023-09-17T11:24:59.497Z,100098.94
2023-09-17T11:27:47.331Z,100097.50
2023-09-17T11:30:24.802Z,100097.03
2023-09-17T11:32:54.580Z,100090.22
2023-09-17T11:35:25.097Z,100087.53
2023-09-17T11:37:53.030Z,100076.97
2023-09-17T11:40:21.998Z,100090.75
2023-09-17T11:42:52.085Z,100092.66
2023-09-17T11:45:19.960Z,100087.59
2023-09-17T11:47:47.319Z,100090.00
2023-09-17T11:50:16.062Z,100086.72
2023-09-17T11:52:44.597Z,100082.97
2023-09-17T11:55:23.574Z,100088.88
2023-09-17T11:57:51.389Z,100090.56
2023-09-17T12:00:35.893Z,100081.91
2023-09-17T12:03:11.671Z,100065.75
2023-09-17T12:05:52.731Z,100060.72
2023-09-17T12:08:51.914Z,100075.19
2023-09-17T12:11:50.971Z,100066.38
2023-09-17T12:17:12.474Z,100066.22
2023-09-17T12:19:51.042Z,100060.09
2023-09-17T12:22:25.670Z,100060.09
2023-09-17T12:25:20.410Z,100058.34
2023-09-17T12:27:48.967Z,100058.44
2023-09-17T12:30:16.740Z,100052.25
2023-09-17T12:32:45.165Z,100057.22
2023-09-17T12:35:12.770Z,100039.72
2023-09-17T12:37:40.722Z,100054.97
2023-09-17T12:40:09.931Z,100048.78
2023-09-17T12:42:37.916Z,100051.16
2023-09-17T12:45:06.041Z,100045.19
2023-09-17T12:47:34.197Z,100036.63
2023-09-17T12:50:04.071Z,100031.97
2023-09-17T12:52:35.496Z,100026.47
2023-09-17T12:55:04.987Z,100017.69
2023-09-17T12:57:33.333Z,100020.75
2023-09-17T13:00:04.437Z,100032.59
2023-09-17T13:02:35.904Z,100022.50
2023-09-17T13:05:04.777Z,100021.75
2023-09-17T13:07:37.747Z,100033.16
2023-09-17T13:10:08.092Z,100020.81
2023-09-17T13:12:36.978Z,100031.31
2023-09-17T13:15:06.263Z,100026.59
2023-09-17T13:17:36.792Z,100034.91
2023-09-17T13:20:07.292Z,100016.78
2023-09-17T13:22:40.264Z,100022.66
2023-09-17T13:25:10.211Z,100013.00
2023-09-17T13:27:38.024Z,100017.69
2023-09-17T13:30:06.964Z,100008.91
2023-09-17T13:32:37.100Z,100017.34
2023-09-17T13:35:12.155Z,100008.25
2023-09-17T13:37:41.603Z,100001.81
2023-09-17T13:40:36.810Z,100020.09
2023-09-17T13:43:08.088Z,100013.41
2023-09-17T13:45:37.818Z,100009.28
2023-09-17T13:48:05.817Z,100003.59
2023-09-17T13:50:36.116Z,100021.00
2023-09-17T13:53:04.771Z,100015.41
2023-09-17T13:55:32.254Z,100009.00
2023-09-17T13:58:01.167Z,100003.94
2023-09-17T14:00:28.840Z,99988.06
2023-09-17T14:02:56.780Z,99998.84
2023-09-17T14:05:24.665Z,100006.59
2023-09-17T14:07:53.848Z,99998.59
2023-09-17T14:10:21.246Z,99984.19
2023-09-17T14:12:48.984Z,100001.63
2023-09-17T14:15:17.107Z,99991.94
2023-09-17T14:17:44.898Z,99991.44
2023-09-17T14:20:13.560Z,99984.22
2023-09-17T14:22:44.316Z,99981.47
2023-09-17T14:25:12.258Z,99997.94
2023-09-17T14:27:40.079Z,99997.53
2023-09-17T14:30:13.369Z,99999.28
2023-09-17T14:32:42.181Z,99992.50
2023-09-17T14:35:11.526Z,100001.84
2023-09-17T14:37:40.606Z,99995.78
2023-09-17T14:40:10.922Z,99993.25
2023-09-17T14:42:57.397Z,100002.97
2023-09-17T14:45:24.760Z,99989.13
2023-09-17T14:47:52.596Z,99994.78
2023-09-17T14:50:20.049Z,99999.03
2023-09-17T14:52:49.204Z,100002.28
2023-09-17T14:55:17.619Z,100004.38
2023-09-17T14:57:45.400Z,99992.25
2023-09-17T15:00:15.715Z,99996.13
2023-09-17T15:02:45.285Z,99995.25
2023-09-17T15:05:13.262Z,99998.13
2023-09-17T15:07:44.646Z,99993.53
2023-09-17T15:10:12.636Z,100006.63
2023-09-17T15:12:40.403Z,99977.00
2023-09-17T15:15:08.038Z,99998.38
2023-09-17T15:17:37.097Z,99998.31
2023-09-17T15:20:09.985Z,100003.66
2023-09-17T15:22:40.099Z,99988.81
2023-09-17T15:25:09.265Z,99996.00
2023-09-17T15:27:36.837Z,99986.94
2023-09-17T15:30:05.895Z,99991.69
2023-09-17T15:32:34.283Z,99994.69
2023-09-17T15:35:09.689Z,100000.06
2023-09-17T15:37:37.645Z,99993.25
2023-09-17T15:40:08.474Z,100001.28
2023-09-17T15:42:38.745Z,99997.16
2023-09-17T15:45:06.560Z,100008.75
2023-09-17T15:47:34.284Z,100009.50
2023-09-17T15:50:04.094Z,99988.69
2023-09-17T15:52:34.849Z,99990.84
2023-09-17T15:55:04.657Z,100000.59
2023-09-17T15:57:34.936Z,99992.66
2023-09-17T16:00:02.403Z,99995.97
2023-09-17T16:02:43.610Z,100001.22
2023-09-17T16:05:11.781Z,99998.00
2023-09-17T16:07:44.725Z,99984.78
2023-09-17T16:10:15.373Z,99996.91
2023-09-17T16:12:43.390Z,100013.41
2023-09-17T16:15:12.278Z,99992.22
2023-09-17T16:17:40.157Z,100012.31
2023-09-17T16:20:09.801Z,99998.00
2023-09-17T16:22:37.817Z,100021.69
2023-09-17T16:25:06.277Z,100023.03
2023-09-17T16:27:33.920Z,100008.44
2023-09-17T16:30:01.429Z,100015.06
2023-09-17T16:32:30.139Z,100016.09
2023-09-17T16:34:57.731Z,100021.09
2023-09-17T16:37:26.977Z,100022.38
2023-09-17T16:39:56.925Z,100026.56
2023-09-17T16:42:24.880Z,100014.63
2023-09-17T16:45:11.441Z,100028.66
2023-09-17T16:47:39.358Z,100028.63
2023-09-17T16:50:07.382Z,100013.19
2023-09-17T16:52:35.084Z,100006.50
2023-09-17T16:55:06.059Z,100026.97
2023-09-17T16:57:37.992Z,100024.44
2023-09-17T17:00:14.770Z,100035.63
2023-09-17T17:02:43.290Z,100025.69
2023-09-17T17:05:11.286Z,100028.94
2023-09-17T17:07:43.364Z,100032.72
2023-09-17T17:10:11.021Z,100038.47
2023-09-17T17:12:39.447Z,100043.78
2023-09-17T17:15:09.277Z,100024.91
2023-09-17T17:17:38.831Z,100039.16
2023-09-17T17:20:09.126Z,100036.41
2023-09-17T17:22:47.217Z,100045.81
2023-09-17T17:25:14.637Z,100042.47
2023-09-17T17:27:43.752Z,100047.44
2023-09-17T17:30:11.674Z,100041.47
2023-09-17T17:32:45.468Z,100055.16
2023-09-17T17:35:14.982Z,100046.06
2023-09-17T17:37:43.333Z,100054.94
2023-09-17T17:40:11.201Z,100055.91
2023-09-17T17:42:40.725Z,100053.75
2023-09-17T17:45:11.607Z,100061.94
2023-09-17T17:47:40.372Z,100066.84
2023-09-17T17:50:08.572Z,100069.50
2023-09-17T17:52:36.227Z,100046.28
2023-09-17T17:55:05.877Z,100067.06
2023-09-17T17:57:33.532Z,100071.59
2023-09-17T18:00:05.743Z,100076.72
2023-09-17T18:02:40.585Z,100074.25
2023-09-17T18:05:09.183Z,100065.63
2023-09-17T18:07:39.487Z,100078.53
2023-09-17T18:10:09.632Z,100070.41
2023-09-17T18:12:39.832Z,100071.09
2023-09-17T18:15:10.201Z,100077.31
2023-09-17T18:17:39.241Z,100079.13
2023-09-17T18:20:13.665Z,100083.59
2023-09-17T18:22:42.034Z,100076.72
2023-09-17T18:25:10.027Z,100074.84
2023-09-17T18:27:39.573Z,100080.66
2023-09-17T18:30:08.354Z,100067.69
2023-09-17T18:32:36.093Z,100075.84
2023-09-17T18:35:03.601Z,100085.63
2023-09-17T18:37:31.792Z,100061.91
2023-09-17T18:39:59.178Z,100078.75
2023-09-17T18:42:30.338Z,100075.56
2023-09-17T18:44:58.256Z,100071.41
2023-09-17T18:47:26.453Z,100064.75
2023-09-17T18:49:54.059Z,100078.53
2023-09-17T18:52:23.793Z,100078.22
2023-09-17T18:54:53.719Z,100081.03
2023-09-17T18:57:21.794Z,100076.66
2023-09-17T18:59:50.085Z,100068.53
2023-09-17T19:02:20.222Z,100070.84
2023-09-17T19:04:49.770Z,100075.25
2023-09-17T19:07:17.730Z,100075.59
2023-09-17T19:09:45.025Z,100072.19
2023-09-17T19:12:13.461Z,100069.31
2023-09-17T19:14:41.620Z,100068.34
2023-09-17T19:17:10.801Z,100064.38
2023-09-17T19:19:39.082Z,100050.81
2023-09-17T19:22:10.876Z,100058.34
2023-09-17T19:25:08.021Z,100067.25
2023-09-17T19:28:10.025Z,100065.56
2023-09-17T19:30:39.502Z,100061.34
2023-09-17T19:33:09.124Z,100070.97
2023-09-17T19:35:41.584Z,100063.56
2023-09-17T19:38:09.383Z,100065.56
2023-09-17T19:40:37.030Z,100073.03
2023-09-17T19:43:05.191Z,100072.41
2023-09-17T19:45:35.067Z,100058.19
2023-09-17T19:48:05.262Z,100063.59
2023-09-17T19:50:35.299Z,100062.88
2023-09-17T19:53:04.039Z,100050.31
2023-09-17T19:55:31.515Z,100046.50
2023-09-17T19:58:09.505Z,100053.22
2023-09-17T20:00:39.048Z,100052.88
2023-09-17T20:03:09.075Z,100042.63
2023-09-17T20:05:44.135Z,100060.03
2023-09-17T20:08:15.226Z,100052.25
2023-09-17T20:10:43.658Z,100048.44
2023-09-17T20:13:12.809Z,100051.81
2023-09-17T20:15:41.359Z,100053.41
2023-09-17T20:18:10.010Z,100062.00
2023-09-17T20:20:37.687Z,100045.22
2023-09-17T20:23:06.894Z,100044.78
2023-09-17T20:25:39.856Z,100034.25
2023-09-17T20:28:10.328Z,100060.16
2023-09-17T20:30:43.130Z,100064.78
2023-09-17T20:33:11.371Z,100055.34
2023-09-17T20:35:41.055Z,100032.28
2023-09-17T20:38:09.093Z,100055.75
2023-09-17T20:40:36.515Z,100048.03
2023-09-17T20:43:10.012Z,100053.78
2023-09-17T20:45:37.618Z,100045.88
2023-09-17T20:48:13.735Z,100042.44
2023-09-17T20:50:42.707Z,100036.69
2023-09-17T20:53:14.532Z,100043.56
2023-09-17T20:55:42.093Z,100040.22
2023-09-17T20:58:09.860Z,100034.34
2023-09-17T21:00:37.368Z,100057.66
2023-09-17T21:03:14.607Z,100039.75
2023-09-17T21:05:49.428Z,100033.50
2023-09-17T21:08:17.558Z,100051.03
2023-09-17T21:10:44.895Z,100054.75
2023-09-17T21:13:15.333Z,100049.69
2023-09-17T21:15:42.868Z,100051.19
2023-09-17T21:18:12.526Z,100038.88
2023-09-17T21:20:41.102Z,100034.28
2023-09-17T21:23:09.572Z,100044.13
2023-09-17T21:25:37.211Z,100041.91
2023-09-17T21:28:06.173Z,100031.88
2023-09-17T21:30:33.740Z,100032.25
2023-09-17T21:33:02.264Z,100031.19
2023-09-17T21:35:30.552Z,100035.16
2023-09-17T21:37:58.829Z,100030.09
2023-09-17T21:40:29.437Z,100041.56
2023-09-17T21:42:58.527Z,100035.69
2023-09-17T21:45:29.507Z,100039.09
2023-09-17T21:47:57.299Z,100039.97
2023-09-17T21:50:24.656Z,100036.09
2023-09-17T21:52:53.007Z,100036.59
2023-09-17T21:55:20.445Z,100013.13
2023-09-17T21:57:49.197Z,100044.78
2023-09-17T22:00:25.175Z,100044.06
2023-09-17T22:02:56.889Z,100035.22
2023-09-17T22:05:26.938Z,100039.78
2023-09-17T22:07:54.745Z,100032.72
2023-09-17T22:10:22.158Z,100021.44
2023-09-17T22:12:49.826Z,100036.41
2023-09-17T22:15:17.268Z,100030.03
2023-09-17T22:17:45.111Z,100026.03
2023-09-17T22:20:17.926Z,100033.22
2023-09-17T22:22:46.819Z,100013.47
2023-09-17T22:25:15.854Z,100015.31
2023-09-17T22:27:43.673Z,100024.88
2023-09-17T22:30:11.899Z,100033.31
2023-09-17T22:32:39.759Z,100025.19
2023-09-17T22:35:09.723Z,100043.00
2023-09-17T22:37:37.869Z,100038.09
2023-09-17T22:40:09.246Z,100043.66
2023-09-17T22:42:37.752Z,100047.25
2023-09-17T22:45:05.925Z,100046.97
2023-09-17T22:47:34.253Z,100047.16
2023-09-17T22:50:02.539Z,100049.09
2023-09-17T22:52:30.352Z,100036.81
2023-09-17T22:54:57.792Z,100036.53
2023-09-17T22:57:25.769Z,100024.56
2023-09-17T22:59:53.382Z,100044.41
2023-09-17T23:02:21.300Z,100011.34
2023-09-17T23:04:49.077Z,100021.06
2023-09-17T23:07:17.693Z,100008.31
2023-09-17T23:09:45.185Z,100026.50
2023-09-17T23:12:15.594Z,100012.25
2023-09-17T23:14:44.126Z,100036.91
2023-09-17T23:17:12.999Z,100026.38
2023-09-17T23:19:40.364Z,100022.38
2023-09-17T23:22:08.067Z,100021.44
2023-09-17T23:24:35.537Z,100027.03
2023-09-17T23:27:03.972Z,100028.31
2023-09-17T23:29:31.830Z,100031.19
2023-09-17T23:31:59.825Z,100024.72
2023-09-17T23:34:27.197Z,100015.22
2023-09-17T23:36:54.803Z,100031.59
2023-09-17T23:39:22.156Z,100021.84
2023-09-17T23:41:51.635Z,100019.75
2023-09-17T23:44:20.057Z,100016.25
2023-09-17T23:46:47.873Z,99992.97
2023-09-17T23:49:15.306Z,100015.25
2023-09-17T23:51:42.997Z,100014.59
2023-09-17T23:54:10.949Z,100008.94
2023-09-17T23:56:38.756Z,100006.44
2023-09-17T23:59:06.182Z,99994.69
